sensor_id;sensor_type;location;lat;lon;timestamp;P1;durP1;ratioP1;P2;durP2;ratioP2
817;SDS011;391;51.052;6.954;2023-06-26T00:00:45;10.33;;;9.40;;
817;SDS011;391;51.052;6.954;2023-06-26T00:02:50;10.03;;;9.10;;
817;SDS011;391;51.052;6.954;2023-06-26T00:04:54;9.37;;;8.60;;
817;SDS011;391;51.052;6.954;2023-06-26T00:06:57;9.80;;;9.00;;
817;SDS011;391;51.052;6.954;2023-06-26T00:09:01;10.53;;;9.67;;
817;SDS011;391;51.052;6.954;2023-06-26T00:11:04;9.40;;;8.53;;
817;SDS011;391;51.052;6.954;2023-06-26T00:13:08;9.70;;;9.00;;
817;SDS011;391;51.052;6.954;2023-06-26T00:15:14;9.87;;;9.07;;
817;SDS011;391;51.052;6.954;2023-06-26T00:17:19;8.97;;;8.27;;
817;SDS011;391;51.052;6.954;2023-06-26T00:19:23;9.00;;;8.20;;
817;SDS011;391;51.052;6.954;2023-06-26T00:21:27;10.20;;;9.40;;
817;SDS011;391;51.052;6.954;2023-06-26T00:23:30;8.33;;;7.70;;
817;SDS011;391;51.052;6.954;2023-06-26T00:25:35;9.67;;;8.87;;
817;SDS011;391;51.052;6.954;2023-06-26T00:27:38;9.00;;;8.40;;
817;SDS011;391;51.052;6.954;2023-06-26T00:29:42;9.30;;;8.60;;
817;SDS011;391;51.052;6.954;2023-06-26T00:31:46;9.60;;;8.30;;
817;SDS011;391;51.052;6.954;2023-06-26T00:33:51;9.93;;;9.13;;
817;SDS011;391;51.052;6.954;2023-06-26T00:35:54;9.13;;;8.43;;
817;SDS011;391;51.052;6.954;2023-06-26T00:37:58;8.27;;;7.67;;
817;SDS011;391;51.052;6.954;2023-06-26T00:40:02;9.37;;;8.67;;
817;SDS011;391;51.052;6.954;2023-06-26T00:42:07;9.33;;;8.63;;
817;SDS011;391;51.052;6.954;2023-06-26T00:44:12;9.60;;;8.90;;
817;SDS011;391;51.052;6.954;2023-06-26T00:46:16;9.20;;;8.50;;
817;SDS011;391;51.052;6.954;2023-06-26T00:48:20;8.60;;;8.00;;
817;SDS011;391;51.052;6.954;2023-06-26T00:50:27;9.57;;;8.87;;
817;SDS011;391;51.052;6.954;2023-06-26T00:52:31;9.50;;;8.77;;
817;SDS011;391;51.052;6.954;2023-06-26T00:54:34;9.83;;;9.13;;
817;SDS011;391;51.052;6.954;2023-06-26T00:56:39;9.40;;;8.70;;
817;SDS011;391;51.052;6.954;2023-06-26T00:58:43;9.67;;;8.93;;
817;SDS011;391;51.052;6.954;2023-06-26T01:00:48;9.13;;;8.53;;
817;SDS011;391;51.052;6.954;2023-06-26T01:02:52;9.53;;;8.83;;
817;SDS011;391;51.052;6.954;2023-06-26T01:04:58;8.87;;;8.17;;
817;SDS011;391;51.052;6.954;2023-06-26T01:07:04;9.30;;;8.50;;
817;SDS011;391;51.052;6.954;2023-06-26T01:09:09;32.07;;;29.30;;
817;SDS011;391;51.052;6.954;2023-06-26T01:11:13;23.60;;;21.63;;
817;SDS011;391;51.052;6.954;2023-06-26T01:13:17;18.53;;;17.07;;
817;SDS011;391;51.052;6.954;2023-06-26T01:15:21;10.10;;;9.20;;
817;SDS011;391;51.052;6.954;2023-06-26T01:17:26;10.53;;;9.63;;
817;SDS011;391;51.052;6.954;2023-06-26T01:19:33;10.50;;;9.70;;
817;SDS011;391;51.052;6.954;2023-06-26T01:21:37;10.30;;;9.30;;
817;SDS011;391;51.052;6.954;2023-06-26T01:23:49;10.60;;;9.70;;
817;SDS011;391;51.052;6.954;2023-06-26T01:26:15;11.67;;;10.57;;
817;SDS011;391;51.052;6.954;2023-06-26T01:28:22;9.63;;;8.87;;
817;SDS011;391;51.052;6.954;2023-06-26T01:30:28;11.10;;;10.10;;
817;SDS011;391;51.052;6.954;2023-06-26T01:32:32;10.07;;;9.00;;
817;SDS011;391;51.052;6.954;2023-06-26T01:34:36;9.77;;;8.77;;
817;SDS011;391;51.052;6.954;2023-06-26T01:36:40;13.10;;;10.70;;
817;SDS011;391;51.052;6.954;2023-06-26T01:38:43;12.30;;;11.20;;
817;SDS011;391;51.052;6.954;2023-06-26T01:40:47;12.73;;;11.53;;
817;SDS011;391;51.052;6.954;2023-06-26T01:42:52;15.00;;;11.50;;
817;SDS011;391;51.052;6.954;2023-06-26T01:44:56;12.57;;;11.27;;
817;SDS011;391;51.052;6.954;2023-06-26T01:47:00;11.03;;;9.60;;
817;SDS011;391;51.052;6.954;2023-06-26T01:49:07;11.13;;;9.97;;
817;SDS011;391;51.052;6.954;2023-06-26T01:51:15;10.00;;;9.10;;
817;SDS011;391;51.052;6.954;2023-06-26T01:53:23;10.53;;;9.30;;
817;SDS011;391;51.052;6.954;2023-06-26T01:55:31;10.70;;;9.70;;
817;SDS011;391;51.052;6.954;2023-06-26T01:57:39;11.07;;;10.00;;
817;SDS011;391;51.052;6.954;2023-06-26T01:59:46;11.10;;;9.97;;
817;SDS011;391;51.052;6.954;2023-06-26T02:01:50;13.43;;;9.60;;
817;SDS011;391;51.052;6.954;2023-06-26T02:03:56;11.27;;;10.17;;
817;SDS011;391;51.052;6.954;2023-06-26T02:05:59;11.20;;;10.10;;
817;SDS011;391;51.052;6.954;2023-06-26T02:08:03;12.70;;;10.33;;
817;SDS011;391;51.052;6.954;2023-06-26T02:10:07;13.07;;;11.50;;
817;SDS011;391;51.052;6.954;2023-06-26T02:12:11;12.37;;;10.97;;
817;SDS011;391;51.052;6.954;2023-06-26T02:14:15;12.13;;;10.93;;
817;SDS011;391;51.052;6.954;2023-06-26T02:16:20;11.87;;;10.77;;
817;SDS011;391;51.052;6.954;2023-06-26T02:18:24;12.93;;;11.00;;
817;SDS011;391;51.052;6.954;2023-06-26T02:20:27;10.90;;;9.67;;
817;SDS011;391;51.052;6.954;2023-06-26T02:22:31;12.00;;;9.80;;
817;SDS011;391;51.052;6.954;2023-06-26T02:24:34;16.07;;;10.10;;
817;SDS011;391;51.052;6.954;2023-06-26T02:26:38;11.67;;;10.50;;
817;SDS011;391;51.052;6.954;2023-06-26T02:28:46;10.00;;;8.90;;
817;SDS011;391;51.052;6.954;2023-06-26T02:30:49;9.17;;;8.37;;
817;SDS011;391;51.052;6.954;2023-06-26T02:32:54;9.10;;;8.40;;
817;SDS011;391;51.052;6.954;2023-06-26T02:34:57;9.47;;;8.63;;
817;SDS011;391;51.052;6.954;2023-06-26T02:37:01;9.27;;;8.47;;
817;SDS011;391;51.052;6.954;2023-06-26T02:39:05;12.33;;;9.43;;
817;SDS011;391;51.052;6.954;2023-06-26T02:41:09;10.30;;;9.33;;
817;SDS011;391;51.052;6.954;2023-06-26T02:43:12;8.07;;;7.37;;
817;SDS011;391;51.052;6.954;2023-06-26T02:45:16;8.27;;;7.60;;
817;SDS011;391;51.052;6.954;2023-06-26T02:47:19;8.90;;;8.20;;
817;SDS011;391;51.052;6.954;2023-06-26T02:49:25;8.93;;;8.23;;
817;SDS011;391;51.052;6.954;2023-06-26T02:51:28;8.50;;;7.70;;
817;SDS011;391;51.052;6.954;2023-06-26T02:53:34;9.03;;;8.33;;
817;SDS011;391;51.052;6.954;2023-06-26T02:55:39;9.20;;;8.50;;
817;SDS011;391;51.052;6.954;2023-06-26T02:57:43;8.70;;;8.00;;
817;SDS011;391;51.052;6.954;2023-06-26T02:59:47;9.27;;;8.47;;
817;SDS011;391;51.052;6.954;2023-06-26T03:01:51;9.20;;;8.40;;
817;SDS011;391;51.052;6.954;2023-06-26T03:03:59;10.23;;;8.53;;
817;SDS011;391;51.052;6.954;2023-06-26T03:06:06;8.37;;;7.57;;
817;SDS011;391;51.052;6.954;2023-06-26T03:08:10;8.80;;;8.10;;
817;SDS011;391;51.052;6.954;2023-06-26T03:10:13;11.83;;;10.83;;
817;SDS011;391;51.052;6.954;2023-06-26T03:12:18;9.57;;;8.77;;
817;SDS011;391;51.052;6.954;2023-06-26T03:14:21;9.17;;;8.40;;
817;SDS011;391;51.052;6.954;2023-06-26T03:16:25;9.70;;;8.90;;
817;SDS011;391;51.052;6.954;2023-06-26T03:18:29;8.13;;;7.43;;
817;SDS011;391;51.052;6.954;2023-06-26T03:20:32;8.60;;;7.70;;
817;SDS011;391;51.052;6.954;2023-06-26T03:22:37;9.30;;;8.40;;
817;SDS011;391;51.052;6.954;2023-06-26T03:24:43;8.57;;;7.80;;
817;SDS011;391;51.052;6.954;2023-06-26T03:26:47;7.93;;;7.23;;
817;SDS011;391;51.052;6.954;2023-06-26T03:28:51;9.33;;;8.63;;
817;SDS011;391;51.052;6.954;2023-06-26T03:30:54;8.30;;;7.70;;
817;SDS011;391;51.052;6.954;2023-06-26T03:32:58;9.10;;;8.17;;
817;SDS011;391;51.052;6.954;2023-06-26T03:35:02;8.67;;;7.97;;
817;SDS011;391;51.052;6.954;2023-06-26T03:37:08;8.83;;;8.13;;
817;SDS011;391;51.052;6.954;2023-06-26T03:39:13;8.80;;;8.10;;
817;SDS011;391;51.052;6.954;2023-06-26T03:41:17;9.80;;;9.00;;
817;SDS011;391;51.052;6.954;2023-06-26T03:43:21;11.43;;;10.43;;
817;SDS011;391;51.052;6.954;2023-06-26T03:45:35;8.40;;;7.70;;
817;SDS011;391;51.052;6.954;2023-06-26T03:47:45;7.97;;;7.37;;
817;SDS011;391;51.052;6.954;2023-06-26T03:49:51;8.10;;;7.30;;
817;SDS011;391;51.052;6.954;2023-06-26T03:51:55;7.20;;;6.50;;
817;SDS011;391;51.052;6.954;2023-06-26T03:53:58;9.13;;;8.33;;
817;SDS011;391;51.052;6.954;2023-06-26T03:56:03;7.70;;;7.00;;
817;SDS011;391;51.052;6.954;2023-06-26T03:58:07;7.63;;;6.90;;
817;SDS011;391;51.052;6.954;2023-06-26T04:00:12;7.57;;;6.97;;
817;SDS011;391;51.052;6.954;2023-06-26T04:02:16;8.20;;;7.50;;
817;SDS011;391;51.052;6.954;2023-06-26T04:04:21;7.63;;;6.93;;
817;SDS011;391;51.052;6.954;2023-06-26T04:06:24;7.50;;;6.80;;
817;SDS011;391;51.052;6.954;2023-06-26T04:08:28;8.37;;;7.67;;
817;SDS011;391;51.052;6.954;2023-06-26T04:10:32;7.57;;;6.87;;
817;SDS011;391;51.052;6.954;2023-06-26T04:12:36;7.80;;;7.10;;
817;SDS011;391;51.052;6.954;2023-06-26T04:14:41;8.07;;;7.47;;
817;SDS011;391;51.052;6.954;2023-06-26T04:16:48;8.87;;;8.07;;
817;SDS011;391;51.052;6.954;2023-06-26T04:18:54;8.03;;;6.83;;
817;SDS011;391;51.052;6.954;2023-06-26T04:21:06;9.00;;;8.20;;
817;SDS011;391;51.052;6.954;2023-06-26T04:23:11;7.53;;;6.93;;
817;SDS011;391;51.052;6.954;2023-06-26T04:25:15;8.30;;;6.83;;
817;SDS011;391;51.052;6.954;2023-06-26T04:27:18;8.37;;;7.67;;
817;SDS011;391;51.052;6.954;2023-06-26T04:29:25;8.47;;;7.53;;
817;SDS011;391;51.052;6.954;2023-06-26T04:31:29;7.37;;;6.67;;
817;SDS011;391;51.052;6.954;2023-06-26T04:33:32;7.50;;;6.97;;
817;SDS011;391;51.052;6.954;2023-06-26T04:35:38;8.77;;;7.87;;
817;SDS011;391;51.052;6.954;2023-06-26T04:37:41;9.97;;;8.03;;
817;SDS011;391;51.052;6.954;2023-06-26T04:39:45;8.20;;;7.20;;
817;SDS011;391;51.052;6.954;2023-06-26T04:41:48;7.40;;;6.70;;
817;SDS011;391;51.052;6.954;2023-06-26T04:43:54;7.43;;;6.83;;
817;SDS011;391;51.052;6.954;2023-06-26T04:45:59;7.87;;;7.27;;
817;SDS011;391;51.052;6.954;2023-06-26T04:48:03;8.70;;;7.80;;
817;SDS011;391;51.052;6.954;2023-06-26T04:50:07;8.87;;;7.57;;
817;SDS011;391;51.052;6.954;2023-06-26T04:52:11;8.10;;;7.30;;
817;SDS011;391;51.052;6.954;2023-06-26T04:54:16;7.50;;;6.80;;
817;SDS011;391;51.052;6.954;2023-06-26T04:56:19;7.40;;;6.80;;
817;SDS011;391;51.052;6.954;2023-06-26T04:58:23;6.80;;;6.20;;
817;SDS011;391;51.052;6.954;2023-06-26T05:00:27;7.80;;;7.10;;
817;SDS011;391;51.052;6.954;2023-06-26T05:02:31;7.03;;;6.53;;
817;SDS011;391;51.052;6.954;2023-06-26T05:04:35;8.37;;;6.60;;
817;SDS011;391;51.052;6.954;2023-06-26T05:06:39;7.17;;;6.53;;
817;SDS011;391;51.052;6.954;2023-06-26T05:08:42;7.23;;;6.17;;
817;SDS011;391;51.052;6.954;2023-06-26T05:10:46;7.50;;;6.80;;
817;SDS011;391;51.052;6.954;2023-06-26T05:12:50;6.80;;;6.30;;
817;SDS011;391;51.052;6.954;2023-06-26T05:14:53;7.77;;;7.10;;
817;SDS011;391;51.052;6.954;2023-06-26T05:16:57;6.47;;;5.97;;
817;SDS011;391;51.052;6.954;2023-06-26T05:19:02;6.53;;;5.93;;
817;SDS011;391;51.052;6.954;2023-06-26T05:21:06;7.30;;;6.50;;
817;SDS011;391;51.052;6.954;2023-06-26T05:23:11;7.57;;;6.80;;
817;SDS011;391;51.052;6.954;2023-06-26T05:25:15;6.37;;;5.87;;
817;SDS011;391;51.052;6.954;2023-06-26T05:27:23;6.93;;;6.20;;
817;SDS011;391;51.052;6.954;2023-06-26T05:29:27;8.93;;;6.40;;
817;SDS011;391;51.052;6.954;2023-06-26T05:31:32;8.37;;;6.50;;
817;SDS011;391;51.052;6.954;2023-06-26T05:33:38;6.70;;;5.93;;
817;SDS011;391;51.052;6.954;2023-06-26T05:35:48;6.40;;;5.20;;
817;SDS011;391;51.052;6.954;2023-06-26T05:37:52;5.90;;;5.37;;
817;SDS011;391;51.052;6.954;2023-06-26T05:39:57;5.77;;;5.00;;
817;SDS011;391;51.052;6.954;2023-06-26T05:42:01;6.00;;;5.20;;
817;SDS011;391;51.052;6.954;2023-06-26T05:44:05;7.13;;;5.83;;
817;SDS011;391;51.052;6.954;2023-06-26T05:46:08;6.70;;;6.00;;
817;SDS011;391;51.052;6.954;2023-06-26T05:48:13;8.47;;;4.90;;
817;SDS011;391;51.052;6.954;2023-06-26T05:50:17;7.50;;;6.80;;
817;SDS011;391;51.052;6.954;2023-06-26T05:52:24;6.20;;;5.60;;
817;SDS011;391;51.052;6.954;2023-06-26T05:54:28;6.83;;;6.17;;
817;SDS011;391;51.052;6.954;2023-06-26T05:56:32;8.37;;;6.00;;
817;SDS011;391;51.052;6.954;2023-06-26T05:58:36;6.73;;;5.83;;
817;SDS011;391;51.052;6.954;2023-06-26T06:00:40;9.00;;;5.70;;
817;SDS011;391;51.052;6.954;2023-06-26T06:02:45;11.53;;;6.63;;
817;SDS011;391;51.052;6.954;2023-06-26T06:04:48;5.30;;;4.90;;
817;SDS011;391;51.052;6.954;2023-06-26T06:06:52;6.07;;;5.47;;
817;SDS011;391;51.052;6.954;2023-06-26T06:08:57;7.83;;;5.97;;
817;SDS011;391;51.052;6.954;2023-06-26T06:11:00;8.70;;;6.80;;
817;SDS011;391;51.052;6.954;2023-06-26T06:13:04;5.93;;;5.33;;
817;SDS011;391;51.052;6.954;2023-06-26T06:15:07;8.67;;;5.43;;
817;SDS011;391;51.052;6.954;2023-06-26T06:17:11;6.00;;;5.40;;
817;SDS011;391;51.052;6.954;2023-06-26T06:19:15;5.60;;;5.20;;
817;SDS011;391;51.052;6.954;2023-06-26T06:21:18;6.90;;;5.87;;
817;SDS011;391;51.052;6.954;2023-06-26T06:23:22;6.30;;;5.80;;
817;SDS011;391;51.052;6.954;2023-06-26T06:25:27;8.20;;;6.10;;
817;SDS011;391;51.052;6.954;2023-06-26T06:27:31;5.87;;;5.33;;
817;SDS011;391;51.052;6.954;2023-06-26T06:29:34;6.80;;;6.20;;
817;SDS011;391;51.052;6.954;2023-06-26T06:31:38;6.20;;;5.57;;
817;SDS011;391;51.052;6.954;2023-06-26T06:33:41;6.00;;;5.40;;
817;SDS011;391;51.052;6.954;2023-06-26T06:35:45;10.90;;;5.83;;
817;SDS011;391;51.052;6.954;2023-06-26T06:37:48;7.10;;;5.70;;
817;SDS011;391;51.052;6.954;2023-06-26T06:39:52;10.17;;;5.30;;
817;SDS011;391;51.052;6.954;2023-06-26T06:41:57;6.20;;;5.60;;
817;SDS011;391;51.052;6.954;2023-06-26T06:44:00;6.20;;;5.60;;
817;SDS011;391;51.052;6.954;2023-06-26T06:46:04;6.90;;;6.20;;
817;SDS011;391;51.052;6.954;2023-06-26T06:48:08;7.07;;;6.37;;
817;SDS011;391;51.052;6.954;2023-06-26T06:50:12;6.80;;;6.17;;
817;SDS011;391;51.052;6.954;2023-06-26T06:52:18;6.60;;;5.93;;
817;SDS011;391;51.052;6.954;2023-06-26T06:54:21;6.50;;;5.80;;
817;SDS011;391;51.052;6.954;2023-06-26T06:56:26;5.80;;;5.23;;
817;SDS011;391;51.052;6.954;2023-06-26T06:58:31;8.17;;;5.67;;
817;SDS011;391;51.052;6.954;2023-06-26T07:00:38;7.10;;;5.70;;
817;SDS011;391;51.052;6.954;2023-06-26T07:02:43;8.43;;;6.10;;
817;SDS011;391;51.052;6.954;2023-06-26T07:04:48;6.90;;;5.40;;
817;SDS011;391;51.052;6.954;2023-06-26T07:06:51;9.07;;;5.70;;
817;SDS011;391;51.052;6.954;2023-06-26T07:08:55;7.30;;;6.47;;
817;SDS011;391;51.052;6.954;2023-06-26T07:10:58;9.17;;;5.77;;
817;SDS011;391;51.052;6.954;2023-06-26T07:13:02;6.43;;;5.23;;
817;SDS011;391;51.052;6.954;2023-06-26T07:15:08;6.47;;;5.67;;
817;SDS011;391;51.052;6.954;2023-06-26T07:17:11;9.73;;;6.43;;
817;SDS011;391;51.052;6.954;2023-06-26T07:19:15;7.23;;;5.83;;
817;SDS011;391;51.052;6.954;2023-06-26T07:21:18;7.97;;;5.03;;
817;SDS011;391;51.052;6.954;2023-06-26T07:23:22;10.70;;;5.63;;
817;SDS011;391;51.052;6.954;2023-06-26T07:25:25;7.10;;;6.07;;
817;SDS011;391;51.052;6.954;2023-06-26T07:27:30;7.90;;;5.63;;
817;SDS011;391;51.052;6.954;2023-06-26T07:29:35;6.23;;;5.50;;
817;SDS011;391;51.052;6.954;2023-06-26T07:31:40;8.30;;;5.90;;
817;SDS011;391;51.052;6.954;2023-06-26T07:33:44;7.13;;;6.20;;
817;SDS011;391;51.052;6.954;2023-06-26T07:35:48;10.70;;;6.93;;
817;SDS011;391;51.052;6.954;2023-06-26T07:37:51;7.47;;;5.73;;
817;SDS011;391;51.052;6.954;2023-06-26T07:39:54;7.00;;;6.30;;
817;SDS011;391;51.052;6.954;2023-06-26T07:41:59;10.93;;;6.93;;
817;SDS011;391;51.052;6.954;2023-06-26T07:44:02;11.33;;;7.17;;
817;SDS011;391;51.052;6.954;2023-06-26T07:46:06;7.63;;;6.87;;
817;SDS011;391;51.052;6.954;2023-06-26T07:48:11;10.03;;;6.33;;
817;SDS011;391;51.052;6.954;2023-06-26T07:50:15;8.10;;;7.00;;
817;SDS011;391;51.052;6.954;2023-06-26T07:52:25;6.50;;;5.90;;
817;SDS011;391;51.052;6.954;2023-06-26T07:54:29;8.20;;;6.23;;
817;SDS011;391;51.052;6.954;2023-06-26T07:56:34;7.10;;;6.50;;
817;SDS011;391;51.052;6.954;2023-06-26T07:58:54;7.13;;;6.43;;
817;SDS011;391;51.052;6.954;2023-06-26T08:00:59;6.80;;;5.47;;
817;SDS011;391;51.052;6.954;2023-06-26T08:03:03;11.17;;;6.30;;
817;SDS011;391;51.052;6.954;2023-06-26T08:05:15;7.80;;;6.30;;
817;SDS011;391;51.052;6.954;2023-06-26T08:07:19;8.30;;;6.10;;
817;SDS011;391;51.052;6.954;2023-06-26T08:09:23;12.90;;;6.87;;
817;SDS011;391;51.052;6.954;2023-06-26T08:11:27;7.30;;;5.60;;
817;SDS011;391;51.052;6.954;2023-06-26T08:13:30;9.43;;;6.03;;
817;SDS011;391;51.052;6.954;2023-06-26T08:15:34;8.47;;;6.03;;
817;SDS011;391;51.052;6.954;2023-06-26T08:17:38;11.40;;;6.50;;
817;SDS011;391;51.052;6.954;2023-06-26T08:19:42;9.33;;;6.83;;
817;SDS011;391;51.052;6.954;2023-06-26T08:21:47;8.60;;;6.47;;
817;SDS011;391;51.052;6.954;2023-06-26T08:23:50;9.80;;;5.90;;
817;SDS011;391;51.052;6.954;2023-06-26T08:25:54;6.83;;;5.53;;
817;SDS011;391;51.052;6.954;2023-06-26T08:28:00;6.87;;;6.23;;
817;SDS011;391;51.052;6.954;2023-06-26T08:30:04;6.80;;;6.10;;
817;SDS011;391;51.052;6.954;2023-06-26T08:32:08;10.50;;;6.20;;
817;SDS011;391;51.052;6.954;2023-06-26T08:34:11;8.90;;;5.90;;
817;SDS011;391;51.052;6.954;2023-06-26T08:36:15;7.17;;;5.93;;
817;SDS011;391;51.052;6.954;2023-06-26T08:38:20;7.47;;;6.73;;
817;SDS011;391;51.052;6.954;2023-06-26T08:40:23;6.47;;;5.80;;
817;SDS011;391;51.052;6.954;2023-06-26T08:42:27;7.47;;;6.70;;
817;SDS011;391;51.052;6.954;2023-06-26T08:44:31;6.87;;;6.00;;
817;SDS011;391;51.052;6.954;2023-06-26T08:46:35;6.33;;;5.73;;
817;SDS011;391;51.052;6.954;2023-06-26T08:48:39;7.60;;;6.83;;
817;SDS011;391;51.052;6.954;2023-06-26T08:50:48;7.13;;;5.90;;
817;SDS011;391;51.052;6.954;2023-06-26T08:52:53;6.80;;;6.10;;
817;SDS011;391;51.052;6.954;2023-06-26T08:55:06;8.87;;;6.17;;
817;SDS011;391;51.052;6.954;2023-06-26T08:57:12;14.40;;;7.47;;
817;SDS011;391;51.052;6.954;2023-06-26T08:59:21;7.60;;;6.70;;
817;SDS011;391;51.052;6.954;2023-06-26T09:01:25;6.00;;;5.13;;
817;SDS011;391;51.052;6.954;2023-06-26T09:03:29;7.00;;;6.00;;
817;SDS011;391;51.052;6.954;2023-06-26T09:05:34;12.20;;;7.40;;
817;SDS011;391;51.052;6.954;2023-06-26T09:07:38;8.43;;;6.90;;
817;SDS011;391;51.052;6.954;2023-06-26T09:09:41;10.80;;;5.87;;
817;SDS011;391;51.052;6.954;2023-06-26T09:11:46;13.07;;;5.80;;
817;SDS011;391;51.052;6.954;2023-06-26T09:13:50;9.53;;;6.37;;
817;SDS011;391;51.052;6.954;2023-06-26T09:15:54;14.90;;;5.80;;
817;SDS011;391;51.052;6.954;2023-06-26T09:17:58;6.20;;;5.37;;
817;SDS011;391;51.052;6.954;2023-06-26T09:20:02;8.27;;;5.70;;
817;SDS011;391;51.052;6.954;2023-06-26T09:22:10;8.47;;;6.37;;
817;SDS011;391;51.052;6.954;2023-06-26T09:24:15;7.33;;;5.83;;
817;SDS011;391;51.052;6.954;2023-06-26T09:26:20;11.90;;;5.97;;
817;SDS011;391;51.052;6.954;2023-06-26T09:28:25;9.57;;;5.77;;
817;SDS011;391;51.052;6.954;2023-06-26T09:30:31;12.40;;;5.87;;
817;SDS011;391;51.052;6.954;2023-06-26T09:32:35;8.87;;;5.83;;
817;SDS011;391;51.052;6.954;2023-06-26T09:34:40;11.13;;;5.73;;
817;SDS011;391;51.052;6.954;2023-06-26T09:36:45;9.00;;;6.10;;
817;SDS011;391;51.052;6.954;2023-06-26T09:38:51;6.77;;;6.10;;
817;SDS011;391;51.052;6.954;2023-06-26T09:40:54;5.93;;;5.50;;
817;SDS011;391;51.052;6.954;2023-06-26T09:43:02;6.97;;;6.10;;
817;SDS011;391;51.052;6.954;2023-06-26T09:45:12;6.93;;;5.53;;
817;SDS011;391;51.052;6.954;2023-06-26T09:47:21;7.77;;;5.90;;
817;SDS011;391;51.052;6.954;2023-06-26T09:49:26;9.90;;;5.90;;
817;SDS011;391;51.052;6.954;2023-06-26T09:51:30;8.13;;;6.63;;
817;SDS011;391;51.052;6.954;2023-06-26T09:53:34;8.50;;;5.30;;
817;SDS011;391;51.052;6.954;2023-06-26T09:55:38;6.80;;;5.43;;
817;SDS011;391;51.052;6.954;2023-06-26T09:57:45;8.67;;;6.00;;
817;SDS011;391;51.052;6.954;2023-06-26T09:59:50;7.73;;;5.13;;
817;SDS011;391;51.052;6.954;2023-06-26T10:01:58;5.50;;;5.00;;
817;SDS011;391;51.052;6.954;2023-06-26T10:04:03;5.23;;;4.73;;
817;SDS011;391;51.052;6.954;2023-06-26T10:06:09;5.57;;;5.00;;
817;SDS011;391;51.052;6.954;2023-06-26T10:08:14;7.77;;;5.50;;
817;SDS011;391;51.052;6.954;2023-06-26T10:10:19;7.90;;;5.80;;
817;SDS011;391;51.052;6.954;2023-06-26T10:12:26;7.23;;;4.40;;
817;SDS011;391;51.052;6.954;2023-06-26T10:14:33;7.77;;;5.50;;
817;SDS011;391;51.052;6.954;2023-06-26T10:16:38;6.83;;;5.40;;
817;SDS011;391;51.052;6.954;2023-06-26T10:18:46;8.97;;;4.73;;
817;SDS011;391;51.052;6.954;2023-06-26T10:20:53;7.33;;;4.27;;
817;SDS011;391;51.052;6.954;2023-06-26T10:22:59;5.97;;;4.80;;
817;SDS011;391;51.052;6.954;2023-06-26T10:25:06;4.60;;;4.20;;
817;SDS011;391;51.052;6.954;2023-06-26T10:27:13;4.07;;;3.70;;
817;SDS011;391;51.052;6.954;2023-06-26T10:29:20;6.17;;;4.07;;
817;SDS011;391;51.052;6.954;2023-06-26T10:31:26;4.90;;;4.50;;
817;SDS011;391;51.052;6.954;2023-06-26T10:33:32;6.57;;;4.53;;
817;SDS011;391;51.052;6.954;2023-06-26T10:35:42;6.27;;;4.60;;
817;SDS011;391;51.052;6.954;2023-06-26T10:37:47;5.17;;;4.00;;
817;SDS011;391;51.052;6.954;2023-06-26T10:39:51;13.60;;;5.53;;
817;SDS011;391;51.052;6.954;2023-06-26T10:41:57;8.40;;;4.00;;
817;SDS011;391;51.052;6.954;2023-06-26T10:44:12;9.07;;;5.07;;
817;SDS011;391;51.052;6.954;2023-06-26T10:46:20;4.67;;;4.13;;
817;SDS011;391;51.052;6.954;2023-06-26T10:48:24;6.83;;;4.73;;
817;SDS011;391;51.052;6.954;2023-06-26T10:50:32;5.60;;;4.67;;
817;SDS011;391;51.052;6.954;2023-06-26T10:52:41;7.10;;;5.00;;
817;SDS011;391;51.052;6.954;2023-06-26T10:54:44;5.23;;;4.83;;
817;SDS011;391;51.052;6.954;2023-06-26T10:56:48;9.13;;;4.50;;
817;SDS011;391;51.052;6.954;2023-06-26T10:58:53;11.40;;;4.87;;
817;SDS011;391;51.052;6.954;2023-06-26T11:01:18;6.03;;;4.50;;
817;SDS011;391;51.052;6.954;2023-06-26T11:03:31;5.60;;;3.33;;
817;SDS011;391;51.052;6.954;2023-06-26T11:05:34;5.07;;;4.10;;
817;SDS011;391;51.052;6.954;2023-06-26T11:07:38;5.70;;;3.60;;
817;SDS011;391;51.052;6.954;2023-06-26T11:10:09;8.70;;;4.97;;
817;SDS011;391;51.052;6.954;2023-06-26T11:12:13;7.27;;;3.80;;
817;SDS011;391;51.052;6.954;2023-06-26T11:14:16;4.73;;;4.23;;
817;SDS011;391;51.052;6.954;2023-06-26T11:16:20;7.30;;;4.70;;
817;SDS011;391;51.052;6.954;2023-06-26T11:18:24;6.97;;;4.60;;
817;SDS011;391;51.052;6.954;2023-06-26T11:20:27;6.10;;;4.20;;
817;SDS011;391;51.052;6.954;2023-06-26T11:22:31;8.40;;;4.57;;
817;SDS011;391;51.052;6.954;2023-06-26T11:24:39;6.53;;;3.27;;
817;SDS011;391;51.052;6.954;2023-06-26T11:26:45;3.30;;;3.00;;
817;SDS011;391;51.052;6.954;2023-06-26T11:28:50;6.50;;;4.40;;
817;SDS011;391;51.052;6.954;2023-06-26T11:30:56;6.07;;;3.33;;
817;SDS011;391;51.052;6.954;2023-06-26T11:33:03;4.33;;;3.20;;
817;SDS011;391;51.052;6.954;2023-06-26T11:35:08;3.77;;;3.33;;
817;SDS011;391;51.052;6.954;2023-06-26T11:37:12;4.00;;;3.30;;
817;SDS011;391;51.052;6.954;2023-06-26T11:39:19;6.23;;;3.30;;
817;SDS011;391;51.052;6.954;2023-06-26T11:41:25;4.90;;;3.10;;
817;SDS011;391;51.052;6.954;2023-06-26T11:43:30;6.90;;;2.90;;
817;SDS011;391;51.052;6.954;2023-06-26T11:45:33;5.97;;;3.10;;
817;SDS011;391;51.052;6.954;2023-06-26T11:47:37;4.83;;;2.80;;
817;SDS011;391;51.052;6.954;2023-06-26T11:49:42;8.03;;;3.20;;
817;SDS011;391;51.052;6.954;2023-06-26T11:51:46;5.00;;;2.90;;
817;SDS011;391;51.052;6.954;2023-06-26T11:53:49;8.27;;;3.10;;
817;SDS011;391;51.052;6.954;2023-06-26T11:55:54;2.93;;;2.50;;
817;SDS011;391;51.052;6.954;2023-06-26T11:58:00;8.33;;;3.17;;
817;SDS011;391;51.052;6.954;2023-06-26T12:00:12;5.40;;;2.43;;
817;SDS011;391;51.052;6.954;2023-06-26T12:02:17;4.43;;;3.80;;
817;SDS011;391;51.052;6.954;2023-06-26T12:04:20;3.50;;;2.60;;
817;SDS011;391;51.052;6.954;2023-06-26T12:06:24;2.70;;;2.50;;
817;SDS011;391;51.052;6.954;2023-06-26T12:08:29;3.43;;;2.53;;
817;SDS011;391;51.052;6.954;2023-06-26T12:10:32;3.83;;;2.63;;
817;SDS011;391;51.052;6.954;2023-06-26T12:12:36;2.43;;;2.00;;
817;SDS011;391;51.052;6.954;2023-06-26T12:14:42;4.20;;;2.23;;
817;SDS011;391;51.052;6.954;2023-06-26T12:16:45;3.33;;;2.20;;
817;SDS011;391;51.052;6.954;2023-06-26T12:18:49;4.07;;;2.23;;
817;SDS011;391;51.052;6.954;2023-06-26T12:20:53;3.20;;;2.30;;
817;SDS011;391;51.052;6.954;2023-06-26T12:22:56;6.00;;;3.07;;
817;SDS011;391;51.052;6.954;2023-06-26T12:25:00;2.70;;;2.50;;
817;SDS011;391;51.052;6.954;2023-06-26T12:27:07;4.70;;;2.80;;
817;SDS011;391;51.052;6.954;2023-06-26T12:29:12;3.97;;;2.40;;
817;SDS011;391;51.052;6.954;2023-06-26T12:31:20;4.40;;;2.50;;
817;SDS011;391;51.052;6.954;2023-06-26T12:33:24;4.50;;;2.63;;
817;SDS011;391;51.052;6.954;2023-06-26T12:35:28;2.53;;;2.33;;
817;SDS011;391;51.052;6.954;2023-06-26T12:37:35;4.73;;;2.60;;
817;SDS011;391;51.052;6.954;2023-06-26T12:39:46;6.30;;;3.03;;
817;SDS011;391;51.052;6.954;2023-06-26T12:41:52;4.40;;;2.90;;
817;SDS011;391;51.052;6.954;2023-06-26T12:43:56;3.70;;;2.70;;
817;SDS011;391;51.052;6.954;2023-06-26T12:46:00;4.60;;;2.33;;
817;SDS011;391;51.052;6.954;2023-06-26T12:48:08;5.07;;;2.03;;
817;SDS011;391;51.052;6.954;2023-06-26T12:50:14;4.80;;;3.17;;
817;SDS011;391;51.052;6.954;2023-06-26T12:52:19;2.97;;;2.00;;
817;SDS011;391;51.052;6.954;2023-06-26T12:54:23;2.87;;;2.57;;
817;SDS011;391;51.052;6.954;2023-06-26T12:56:27;6.33;;;2.90;;
817;SDS011;391;51.052;6.954;2023-06-26T12:58:30;4.17;;;2.10;;
817;SDS011;391;51.052;6.954;2023-06-26T13:00:33;2.93;;;2.00;;
817;SDS011;391;51.052;6.954;2023-06-26T13:02:37;2.57;;;1.73;;
817;SDS011;391;51.052;6.954;2023-06-26T13:04:42;2.40;;;2.13;;
817;SDS011;391;51.052;6.954;2023-06-26T13:06:46;1.30;;;1.20;;
817;SDS011;391;51.052;6.954;2023-06-26T13:08:50;2.70;;;1.50;;
817;SDS011;391;51.052;6.954;2023-06-26T13:10:53;2.70;;;1.57;;
817;SDS011;391;51.052;6.954;2023-06-26T13:12:57;2.37;;;1.50;;
817;SDS011;391;51.052;6.954;2023-06-26T13:15:00;2.03;;;1.47;;
817;SDS011;391;51.052;6.954;2023-06-26T13:17:04;3.83;;;1.80;;
817;SDS011;391;51.052;6.954;2023-06-26T13:19:11;4.13;;;1.80;;